Cold Wind — HOYR — position and weather

sailwx.info

Track history (hours):
 
Tides and Currents Weather Stations Pressure Air Temp Water Temp Dewpoint Dewpoint Depression Visibility Wind Speed Wind Dir Waves Ship Positions

Cold Wind

Last reported at 2017-Oct-09 07:44 UTC. Time now 2017-Oct-18 00:11 UTC.
Position N 32°03' E 120°25'.
Warning: this ship's position is 8 days out of date.

Length 98 m; draft 5.5 m.

Type: Tanker. MMSI: 370903000.

Date/timePositionNaut miles runAvg speedWind from/ knotsBaromVisibWave heightAir tempDewpointWater temp
2017-Oct-09 07:44N 32°03' E 120°25'34 7.3
2017-Oct-09 03:07N 31°47' E 121°00'1 8.1
2017-Oct-09 02:56N 31°46' E 121°02'5 8.5
2017-Oct-09 02:20N 31°44' E 121°07'3 8.7
2017-Oct-09 02:00N 31°42' E 121°09'4 8.5
2017-Oct-09 01:30N 31°39' E 121°13'4 8.3
2017-Oct-09 01:00N 31°36' E 121°17'4 7.4
2017-Oct-09 00:30N 31°34' E 121°21'0 0.1
2017-Oct-09 00:00N 31°34' E 121°21'0 0.0
2017-Oct-08 23:30N 31°34' E 121°21'0 0.0
2017-Oct-08 23:00N 31°34' E 121°21'0 0.0
2017-Oct-08 22:30N 31°34' E 121°21'0 0.1
2017-Oct-08 21:54N 31°34' E 121°21'0 0.0
2017-Oct-08 21:27N 31°34' E 121°21'0 0.1
2017-Oct-08 21:00N 31°34' E 121°21'0 0.2
2017-Oct-08 20:30N 31°34' E 121°21'0 0.0
2017-Oct-08 19:57N 31°34' E 121°21'0 0.0
2017-Oct-08 19:30N 31°34' E 121°21'0 0.0
2017-Oct-08 19:00N 31°34' E 121°21'0 0.0
2017-Oct-08 18:21N 31°34' E 121°21'0 0.0
2017-Oct-08 18:00N 31°34' E 121°21'0 0.0
2017-Oct-08 17:18N 31°34' E 121°21'0 0.0
2017-Oct-08 17:00N 31°34' E 121°21'0 0.0
2017-Oct-08 16:30N 31°34' E 121°21'0 0.2
2017-Oct-08 15:57N 31°34' E 121°21'0 0.0
2017-Oct-08 15:30N 31°34' E 121°21'0 0.0
2017-Oct-08 15:00N 31°34' E 121°21'0 0.0
2017-Oct-08 14:24N 31°34' E 121°21'0 0.0
2017-Oct-08 14:00N 31°34' E 121°21'0 0.0
2017-Oct-08 13:30N 31°34' E 121°21'0 0.0
2017-Oct-08 13:00N 31°34' E 121°21'0 0.0
2017-Oct-08 12:18N 31°34' E 121°21'0 0.0
2017-Oct-08 12:00N 31°34' E 121°21'0 0.0
2017-Oct-08 11:30N 31°34' E 121°21'0 0.0
2017-Oct-08 11:00N 31°34' E 121°21'0 0.0
2017-Oct-08 10:21N 31°34' E 121°21'0 0.0
2017-Oct-08 09:42N 31°34' E 121°21'0 0.2
2017-Oct-08 09:24N 31°34' E 121°21'0 0.2
2017-Oct-08 09:00N 31°34' E 121°21'0 0.7
2017-Oct-08 08:30N 31°34' E 121°20'3 6.9
2017-Oct-08 08:00N 31°32' E 121°23'611.6
2017-Oct-08 07:30N 31°28' E 121°28'4 8.6
2017-Oct-08 07:00N 31°25' E 121°32'4 8.5
2017-Oct-08 06:30N 31°23' E 121°36'5 9.6
2017-Oct-08 06:00N 31°21' E 121°41'4 9.0
2017-Oct-08 05:30N 31°17' E 121°44'712.9
2017-Oct-08 05:00N 31°12' E 121°49'612.9
2017-Oct-08 04:30N 31°08' E 121°55'611.9
2017-Oct-08 04:00N 31°05' E 122°01'611.4
2017-Oct-08 03:30N 31°04' E 122°07'6 9.6
2017-Oct-08 02:52N 31°03' E 122°14'4 8.0
2017-Oct-08 02:25N 31°03' E 122°18'  
2017-Oct-01 12:46N 31°01' E 122°23'310.9
2017-Oct-01 12:30N 31°02' E 122°19'511.0
2017-Oct-01 12:00N 31°02' E 122°13'5 9.0
2017-Oct-01 11:30N 31°03' E 122°08'510.6
2017-Oct-01 11:00N 31°05' E 122°02'4 8.6
2017-Oct-01 10:30N 31°06' E 121°57'511.0
2017-Oct-01 10:00N 31°09' E 121°52'611.8
2017-Oct-01 09:30N 31°14' E 121°48'612.4
2017-Oct-01 09:00N 31°18' E 121°43'611.1
2017-Oct-01 08:30N 31°22' E 121°38'611.1
2017-Oct-01 08:00N 31°24' E 121°32'611.1
2017-Oct-01 07:30N 31°28' E 121°27'611.9
2017-Oct-01 07:00N 31°32' E 121°22'5 5.8
2017-Oct-01 06:10N 31°35' E 121°17'2 0.1
2017-Sep-30 01:56N 31°34' E 121°20'0 0.0
2017-Sep-30 01:29N 31°34' E 121°20'0 0.0
2017-Sep-30 00:59N 31°34' E 121°20'0 0.0
2017-Sep-30 00:29N 31°34' E 121°20'0 0.0
2017-Sep-29 23:59N 31°34' E 121°20'0 0.0
2017-Sep-29 23:26N 31°34' E 121°20'0 0.1
2017-Sep-29 22:08N 31°34' E 121°20'0 0.0
2017-Sep-29 22:00N 31°34' E 121°20'0 0.1
2017-Sep-29 21:30N 31°34' E 121°20'0 0.0
2017-Sep-29 21:00N 31°34' E 121°20'0 0.0
2017-Sep-29 20:31N 31°34' E 121°20'0 0.0
2017-Sep-29 20:01N 31°34' E 121°20'0 0.0
2017-Sep-29 19:30N 31°34' E 121°20'0 0.0
2017-Sep-29 19:00N 31°34' E 121°20'0 0.0
2017-Sep-29 18:30N 31°34' E 121°20'0 0.1
2017-Sep-29 18:00N 31°34' E 121°20'0 0.0
2017-Sep-29 17:30N 31°34' E 121°20'0 0.0
2017-Sep-29 17:00N 31°34' E 121°20'0 0.0
2017-Sep-29 16:31N 31°34' E 121°20'0 0.0
2017-Sep-29 16:00N 31°34' E 121°20'0 0.0
2017-Sep-29 15:30N 31°34' E 121°20'0 0.0
2017-Sep-29 15:00N 31°34' E 121°20'0 0.0
2017-Sep-29 14:30N 31°34' E 121°20'0 0.1
2017-Sep-29 14:00N 31°34' E 121°20'0 0.1
2017-Sep-29 13:31N 31°34' E 121°20'0 0.0
2017-Sep-29 13:00N 31°34' E 121°20'0 0.1
2017-Sep-29 12:30N 31°34' E 121°20'0 0.0
2017-Sep-29 12:00N 31°34' E 121°20'0 0.0
2017-Sep-29 11:31N 31°34' E 121°20'0 0.0
2017-Sep-29 11:00N 31°34' E 121°20'0 0.0
2017-Sep-29 10:31N 31°34' E 121°20'0 0.0
2017-Sep-29 10:00N 31°34' E 121°20'1 1.1
2017-Sep-29 09:31N 31°34' E 121°20'3 6.6
2017-Sep-29 09:00N 31°31' E 121°23'510.4
2017-Sep-29 08:30N 31°28' E 121°28'4 8.3
2017-Sep-29 08:00N 31°25' E 121°31'  
Track history (hours):
 
Tides and Currents Weather Stations Pressure Air Temp Water Temp Dewpoint Dewpoint Depression Visibility Wind Speed Wind Dir Waves Ship Positions

Cold Wind

Last reported at 2017-Oct-09 07:44 UTC. Time now 2017-Oct-18 00:11 UTC.
Position N 32°03' E 120°25'.
Warning: this ship's position is 8 days out of date.

Length 98 m; draft 5.5 m.

Type: Tanker. MMSI: 370903000.

Date/timePositionNaut miles runAvg speedWind from/ knotsBaromVisibWave heightAir tempDewpointWater temp
2017-Oct-09 07:44N 32°03' E 120°25'34 7.3
2017-Oct-09 03:07N 31°47' E 121°00'1 8.1
2017-Oct-09 02:56N 31°46' E 121°02'5 8.5
2017-Oct-09 02:20N 31°44' E 121°07'3 8.7
2017-Oct-09 02:00N 31°42' E 121°09'4 8.5
2017-Oct-09 01:30N 31°39' E 121°13'4 8.3
2017-Oct-09 01:00N 31°36' E 121°17'4 7.4
2017-Oct-09 00:30N 31°34' E 121°21'0 0.1
2017-Oct-09 00:00N 31°34' E 121°21'0 0.0
2017-Oct-08 23:30N 31°34' E 121°21'0 0.0
2017-Oct-08 23:00N 31°34' E 121°21'0 0.0
2017-Oct-08 22:30N 31°34' E 121°21'0 0.1
2017-Oct-08 21:54N 31°34' E 121°21'0 0.0
2017-Oct-08 21:27N 31°34' E 121°21'0 0.1
2017-Oct-08 21:00N 31°34' E 121°21'0 0.2
2017-Oct-08 20:30N 31°34' E 121°21'0 0.0
2017-Oct-08 19:57N 31°34' E 121°21'0 0.0
2017-Oct-08 19:30N 31°34' E 121°21'0 0.0
2017-Oct-08 19:00N 31°34' E 121°21'0 0.0
2017-Oct-08 18:21N 31°34' E 121°21'0 0.0
2017-Oct-08 18:00N 31°34' E 121°21'0 0.0
2017-Oct-08 17:18N 31°34' E 121°21'0 0.0
2017-Oct-08 17:00N 31°34' E 121°21'0 0.0
2017-Oct-08 16:30N 31°34' E 121°21'0 0.2
2017-Oct-08 15:57N 31°34' E 121°21'0 0.0
2017-Oct-08 15:30N 31°34' E 121°21'0 0.0
2017-Oct-08 15:00N 31°34' E 121°21'0 0.0
2017-Oct-08 14:24N 31°34' E 121°21'0 0.0
2017-Oct-08 14:00N 31°34' E 121°21'0 0.0
2017-Oct-08 13:30N 31°34' E 121°21'0 0.0
2017-Oct-08 13:00N 31°34' E 121°21'0 0.0
2017-Oct-08 12:18N 31°34' E 121°21'0 0.0
2017-Oct-08 12:00N 31°34' E 121°21'0 0.0
2017-Oct-08 11:30N 31°34' E 121°21'0 0.0
2017-Oct-08 11:00N 31°34' E 121°21'0 0.0
2017-Oct-08 10:21N 31°34' E 121°21'0 0.0
2017-Oct-08 09:42N 31°34' E 121°21'0 0.2
2017-Oct-08 09:24N 31°34' E 121°21'0 0.2
2017-Oct-08 09:00N 31°34' E 121°21'0 0.7
2017-Oct-08 08:30N 31°34' E 121°20'3 6.9
2017-Oct-08 08:00N 31°32' E 121°23'611.6
2017-Oct-08 07:30N 31°28' E 121°28'4 8.6
2017-Oct-08 07:00N 31°25' E 121°32'4 8.5
2017-Oct-08 06:30N 31°23' E 121°36'5 9.6
2017-Oct-08 06:00N 31°21' E 121°41'4 9.0
2017-Oct-08 05:30N 31°17' E 121°44'712.9
2017-Oct-08 05:00N 31°12' E 121°49'612.9
2017-Oct-08 04:30N 31°08' E 121°55'611.9
2017-Oct-08 04:00N 31°05' E 122°01'611.4
2017-Oct-08 03:30N 31°04' E 122°07'6 9.6
2017-Oct-08 02:52N 31°03' E 122°14'4 8.0
2017-Oct-08 02:25N 31°03' E 122°18'  
2017-Oct-01 12:46N 31°01' E 122°23'310.9
2017-Oct-01 12:30N 31°02' E 122°19'511.0
2017-Oct-01 12:00N 31°02' E 122°13'5 9.0
2017-Oct-01 11:30N 31°03' E 122°08'510.6
2017-Oct-01 11:00N 31°05' E 122°02'4 8.6
2017-Oct-01 10:30N 31°06' E 121°57'511.0
2017-Oct-01 10:00N 31°09' E 121°52'611.8
2017-Oct-01 09:30N 31°14' E 121°48'612.4
2017-Oct-01 09:00N 31°18' E 121°43'611.1
2017-Oct-01 08:30N 31°22' E 121°38'611.1
2017-Oct-01 08:00N 31°24' E 121°32'611.1
2017-Oct-01 07:30N 31°28' E 121°27'611.9
2017-Oct-01 07:00N 31°32' E 121°22'5 5.8
2017-Oct-01 06:10N 31°35' E 121°17'2 0.1
2017-Sep-30 01:56N 31°34' E 121°20'0 0.0
2017-Sep-30 01:29N 31°34' E 121°20'0 0.0
2017-Sep-30 00:59N 31°34' E 121°20'0 0.0
2017-Sep-30 00:29N 31°34' E 121°20'0 0.0
2017-Sep-29 23:59N 31°34' E 121°20'0 0.0
2017-Sep-29 23:26N 31°34' E 121°20'0 0.1
2017-Sep-29 22:08N 31°34' E 121°20'0 0.0
2017-Sep-29 22:00N 31°34' E 121°20'0 0.1
2017-Sep-29 21:30N 31°34' E 121°20'0 0.0
2017-Sep-29 21:00N 31°34' E 121°20'0 0.0
2017-Sep-29 20:31N 31°34' E 121°20'0 0.0
2017-Sep-29 20:01N 31°34' E 121°20'0 0.0
2017-Sep-29 19:30N 31°34' E 121°20'0 0.0
2017-Sep-29 19:00N 31°34' E 121°20'0 0.0
2017-Sep-29 18:30N 31°34' E 121°20'0 0.1
2017-Sep-29 18:00N 31°34' E 121°20'0 0.0
2017-Sep-29 17:30N 31°34' E 121°20'0 0.0
2017-Sep-29 17:00N 31°34' E 121°20'0 0.0
2017-Sep-29 16:31N 31°34' E 121°20'0 0.0
2017-Sep-29 16:00N 31°34' E 121°20'0 0.0
2017-Sep-29 15:30N 31°34' E 121°20'0 0.0
2017-Sep-29 15:00N 31°34' E 121°20'0 0.0
2017-Sep-29 14:30N 31°34' E 121°20'0 0.1
2017-Sep-29 14:00N 31°34' E 121°20'0 0.1
2017-Sep-29 13:31N 31°34' E 121°20'0 0.0
2017-Sep-29 13:00N 31°34' E 121°20'0 0.1
2017-Sep-29 12:30N 31°34' E 121°20'0 0.0
2017-Sep-29 12:00N 31°34' E 121°20'0 0.0
2017-Sep-29 11:31N 31°34' E 121°20'0 0.0
2017-Sep-29 11:00N 31°34' E 121°20'0 0.0
2017-Sep-29 10:31N 31°34' E 121°20'0 0.0
2017-Sep-29 10:00N 31°34' E 121°20'1 1.1
2017-Sep-29 09:31N 31°34' E 121°20'3 6.6
2017-Sep-29 09:00N 31°31' E 121°23'510.4
2017-Sep-29 08:30N 31°28' E 121°28'4 8.3
2017-Sep-29 08:00N 31°25' E 121°31'  

Dump ship's entire track history